createdAt,value
2022-11-24T00:00:27.606Z,99309.44
2022-11-24T00:03:36.109Z,99318.13
2022-11-24T00:06:41.522Z,99312.88
2022-11-24T00:09:49.065Z,99309.63
2022-11-24T00:12:55.608Z,99312.25
2022-11-24T00:16:04.874Z,99308.97
2022-11-24T00:19:09.428Z,99315.66
2022-11-24T00:22:16.184Z,99312.72
2022-11-24T00:25:24.298Z,99317.47
2022-11-24T00:28:31.143Z,99321.41
2022-11-24T00:31:39.976Z,99323.91
2022-11-24T00:34:47.308Z,99330.94
2022-11-24T00:37:55.147Z,99333.72
2022-11-24T00:41:01.955Z,99341.78
2022-11-24T00:44:08.785Z,99335.53
2022-11-24T00:47:17.505Z,99353.41
2022-11-24T00:50:23.596Z,99343.84
2022-11-24T00:53:31.637Z,99351.63
2022-11-24T00:56:36.688Z,99362.97
2022-11-24T00:59:44.350Z,99359.00
2022-11-24T01:02:53.101Z,99359.16
2022-11-24T01:06:06.942Z,99362.47
2022-11-24T01:09:17.859Z,99356.75
2022-11-24T01:12:27.398Z,99357.22
2022-11-24T01:15:32.518Z,99355.88
2022-11-24T01:18:38.871Z,99361.94
2022-11-24T01:21:47.782Z,99361.13
2022-11-24T01:24:57.048Z,99362.78
2022-11-24T01:28:04.470Z,99363.06
2022-11-24T01:31:11.644Z,99363.06
2022-11-24T01:34:21.699Z,99368.31
2022-11-24T01:37:29.226Z,99368.31
2022-11-24T01:40:35.303Z,99369.28
2022-11-24T01:43:43.673Z,99372.22
2022-11-24T01:46:51.161Z,99373.53
2022-11-24T01:49:59.645Z,99371.78
2022-11-24T01:53:06.999Z,99371.13
2022-11-24T01:56:13.896Z,99372.22
2022-11-24T01:59:20.977Z,99380.62
2022-11-24T02:02:30.506Z,99379.78
2022-11-24T02:05:47.701Z,99377.84
2022-11-24T02:09:16.697Z,99382.06
2022-11-24T02:12:25.087Z,99373.88
2022-11-24T02:15:30.849Z,99379.97
2022-11-24T02:18:40.327Z,99374.72
2022-11-24T02:21:49.025Z,99380.94
2022-11-24T02:25:01.151Z,99382.28
2022-11-24T02:28:10.008Z,99384.06
2022-11-24T02:31:17.303Z,99379.66
2022-11-24T02:34:25.098Z,99385.22
2022-11-24T02:37:31.183Z,99383.56
2022-11-24T02:40:39.535Z,99387.66
2022-11-24T02:43:50.349Z,99376.16
2022-11-24T02:47:08.067Z,99377.13
2022-11-24T02:50:15.472Z,99384.34
2022-11-24T02:53:23.763Z,99378.72
2022-11-24T02:56:29.748Z,99388.22
2022-11-24T02:59:37.451Z,99387.62
2022-11-24T03:02:44.817Z,99390.41
2022-11-24T03:05:52.225Z,99387.25
2022-11-24T03:08:58.699Z,99385.16
2022-11-24T03:12:06.838Z,99385.59
2022-11-24T03:15:12.975Z,99387.91
2022-11-24T03:18:19.166Z,99389.50
2022-11-24T03:21:27.159Z,99394.91
2022-11-24T03:24:37.362Z,99399.03
2022-11-24T03:27:46.712Z,99391.91
2022-11-24T03:30:58.851Z,99400.91
2022-11-24T03:34:07.388Z,99398.44
2022-11-24T03:37:16.267Z,99415.97
2022-11-24T03:40:23.603Z,99406.06
2022-11-24T03:43:32.183Z,99414.09
2022-11-24T03:46:38.598Z,99416.84
2022-11-24T03:49:48.986Z,99421.00
2022-11-24T03:52:54.423Z,99428.31
2022-11-24T03:56:03.425Z,99420.44
2022-11-24T03:59:11.975Z,99427.03
2022-11-24T04:02:19.319Z,99424.41
2022-11-24T04:05:25.908Z,99425.81
2022-11-24T04:08:34.181Z,99429.66
2022-11-24T04:12:01.482Z,99426.81
2022-11-24T04:15:06.924Z,99424.88
2022-11-24T04:18:14.416Z,99421.03
2022-11-24T04:21:23.414Z,99423.81
2022-11-24T04:24:29.844Z,99437.50
2022-11-24T04:27:37.559Z,99437.37
2022-11-24T04:30:46.108Z,99439.75
2022-11-24T04:33:52.043Z,99439.88
2022-11-24T04:36:57.931Z,99446.97
2022-11-24T04:40:04.993Z,99452.37
2022-11-24T04:43:10.898Z,99456.22
2022-11-24T04:46:19.561Z,99460.28
2022-11-24T04:49:26.981Z,99459.22
2022-11-24T04:52:32.769Z,99459.37
2022-11-24T04:55:39.407Z,99466.97
2022-11-24T04:58:45.816Z,99471.78
2022-11-24T05:01:52.081Z,99469.28
2022-11-24T05:04:57.632Z,99474.31
2022-11-24T05:08:06.394Z,99495.50
2022-11-24T05:11:12.391Z,99495.94
2022-11-24T05:14:21.215Z,99500.31
2022-11-24T05:17:29.427Z,99496.88
2022-11-24T05:20:35.725Z,99504.34
2022-11-24T05:23:42.015Z,99510.53
2022-11-24T05:26:49.259Z,99509.81
2022-11-24T05:29:55.135Z,99506.63
2022-11-24T05:33:05.582Z,99519.59
2022-11-24T05:36:30.712Z,99523.84
2022-11-24T05:39:37.203Z,99524.25
2022-11-24T05:42:47.156Z,99523.19
2022-11-24T05:45:55.940Z,99528.13
2022-11-24T05:49:03.636Z,99523.00
2022-11-24T05:52:09.534Z,99532.94
2022-11-24T05:55:20.529Z,99549.22
2022-11-24T05:58:24.881Z,99550.59
2022-11-24T06:01:28.553Z,99532.25
2022-11-24T06:04:32.724Z,99542.56
2022-11-24T06:07:36.821Z,99544.75
2022-11-24T06:10:42.328Z,99544.31
2022-11-24T06:13:46.832Z,99550.81
2022-11-24T06:16:54.524Z,99552.88
2022-11-24T06:19:59.631Z,99556.19
2022-11-24T06:23:03.043Z,99557.69
2022-11-24T06:26:06.994Z,99563.38
2022-11-24T06:29:11.049Z,99565.31
2022-11-24T06:32:14.254Z,99569.00
2022-11-24T06:35:19.488Z,99583.34
2022-11-24T06:38:24.445Z,99566.66
2022-11-24T06:41:27.566Z,99585.53
2022-11-24T06:44:30.576Z,99581.13
2022-11-24T06:47:34.292Z,99591.63
2022-11-24T06:50:38.410Z,99592.16
2022-11-24T06:53:43.397Z,99593.91
2022-11-24T06:56:46.859Z,99596.09
2022-11-24T06:59:50.865Z,99607.56
2022-11-24T07:02:53.820Z,99610.75
2022-11-24T07:06:00.798Z,99614.28
2022-11-24T07:09:05.334Z,99611.66
2022-11-24T07:12:09.628Z,99620.50
2022-11-24T07:15:11.932Z,99615.44
2022-11-24T07:18:14.642Z,99626.34
2022-11-24T07:21:18.403Z,99630.38
2022-11-24T07:24:23.967Z,99627.59
2022-11-24T07:27:27.853Z,99644.56
2022-11-24T07:30:31.416Z,99646.03
2022-11-24T07:33:35.331Z,99640.94
2022-11-24T07:36:41.552Z,99650.41
2022-11-24T07:39:45.132Z,99655.66
2022-11-24T07:42:48.697Z,99650.63
2022-11-24T07:45:52.603Z,99656.06
2022-11-24T07:48:57.296Z,99646.34
2022-11-24T07:52:01.529Z,99643.84
2022-11-24T07:55:06.271Z,99648.97
2022-11-24T07:58:08.913Z,99651.34
2022-11-24T08:01:13.066Z,99654.97
2022-11-24T08:04:16.745Z,99662.12
2022-11-24T08:07:19.334Z,99656.63
2022-11-24T08:10:23.077Z,99660.25
2022-11-24T08:13:27.716Z,99682.75
2022-11-24T08:16:32.397Z,99675.06
2022-11-24T08:19:38.779Z,99683.06
2022-11-24T08:22:43.540Z,99687.69
2022-11-24T08:25:47.482Z,99688.37
2022-11-24T08:28:53.612Z,99683.56
2022-11-24T08:31:57.468Z,99679.69
2022-11-24T08:35:14.721Z,99683.06
2022-11-24T08:38:18.953Z,99685.19
2022-11-24T08:41:22.757Z,99686.97
2022-11-24T08:44:25.523Z,99696.34
2022-11-24T08:47:29.064Z,99703.78
2022-11-24T08:50:32.946Z,99711.34
2022-11-24T08:53:36.815Z,99711.72
2022-11-24T08:56:40.148Z,99710.66
2022-11-24T08:59:43.724Z,99712.41
2022-11-24T09:02:52.449Z,99718.53
2022-11-24T09:05:57.354Z,99723.81
2022-11-24T09:09:01.453Z,99716.84
2022-11-24T09:12:08.672Z,99720.22
2022-11-24T09:15:17.705Z,99724.13
2022-11-24T09:18:28.895Z,99716.69
2022-11-24T09:21:35.427Z,99717.19
2022-11-24T09:24:39.745Z,99735.91
2022-11-24T09:27:42.983Z,99733.28
2022-11-24T09:30:46.379Z,99722.19
2022-11-24T09:33:49.147Z,99725.63
2022-11-24T09:36:52.474Z,99729.16
2022-11-24T09:39:55.390Z,99722.75
2022-11-24T09:43:11.519Z,99728.28
2022-11-24T09:46:19.337Z,99729.66
2022-11-24T09:49:35.754Z,99715.75
2022-11-24T09:53:02.185Z,99732.09
2022-11-24T09:56:15.383Z,99708.12
2022-11-24T09:59:21.403Z,99728.81
2022-11-24T10:02:24.782Z,99720.78
2022-11-24T10:05:29.997Z,99718.47
2022-11-24T10:08:39.043Z,99736.34
2022-11-24T10:11:51.834Z,99736.34
2022-11-24T10:15:19.755Z,99732.97
2022-11-24T10:18:27.029Z,99730.06
2022-11-24T10:21:33.814Z,99738.78
2022-11-24T10:24:56.920Z,99732.38
2022-11-24T10:28:03.623Z,99736.91
2022-11-24T10:31:17.943Z,99732.22
2022-11-24T10:34:26.532Z,99734.34
2022-11-24T10:37:43.024Z,99736.84
2022-11-24T10:40:57.138Z,99740.78
2022-11-24T10:44:04.642Z,99736.34
2022-11-24T10:47:20.459Z,99750.56
2022-11-24T10:50:26.588Z,99751.88
2022-11-24T10:53:31.531Z,99748.00
2022-11-24T10:56:42.895Z,99760.13
2022-11-24T10:59:47.054Z,99758.31
2022-11-24T11:03:09.749Z,99766.28
2022-11-24T11:06:27.224Z,99761.78
2022-11-24T11:09:31.676Z,99767.00
2022-11-24T11:12:43.878Z,99769.97
2022-11-24T11:15:47.960Z,99772.50
2022-11-24T11:18:51.955Z,99771.56
2022-11-24T11:22:03.968Z,99776.59
2022-11-24T11:25:10.664Z,99781.16
2022-11-24T11:28:22.210Z,99793.66
2022-11-24T11:31:25.436Z,99785.63
2022-11-24T11:34:34.194Z,99794.00
2022-11-24T11:37:37.435Z,99788.97
2022-11-24T11:40:42.775Z,99799.91
2022-11-24T11:43:46.135Z,99795.84
2022-11-24T11:46:49.198Z,99796.78
2022-11-24T11:49:53.159Z,99804.53
2022-11-24T11:52:59.473Z,99789.47
2022-11-24T11:56:20.595Z,99789.19
2022-11-24T11:59:29.594Z,99791.12
2022-11-24T12:02:48.487Z,99782.28
2022-11-24T12:06:19.378Z,99795.47
2022-11-24T12:09:41.599Z,99793.75
2022-11-24T12:12:59.834Z,99784.06
2022-11-24T12:16:08.417Z,99804.53
2022-11-24T12:19:30.073Z,99792.97
2022-11-24T12:22:32.351Z,99796.28
2022-11-24T12:25:38.246Z,99793.88
2022-11-24T12:28:50.293Z,99804.00
2022-11-24T12:32:04.256Z,99805.78
2022-11-24T12:35:06.575Z,99801.78
2022-11-24T12:38:32.540Z,99803.22
2022-11-24T12:41:47.099Z,99808.88
2022-11-24T12:45:07.751Z,99812.53
2022-11-24T12:48:29.002Z,99803.09
2022-11-24T12:51:33.511Z,99812.00
2022-11-24T12:54:40.208Z,99816.28
2022-11-24T12:57:47.656Z,99821.03
2022-11-24T13:00:59.453Z,99815.09
2022-11-24T13:04:11.620Z,99813.91
2022-11-24T13:07:17.475Z,99821.50
2022-11-24T13:13:59.761Z,99813.53
2022-11-24T13:17:36.341Z,99822.69
2022-11-24T13:20:45.783Z,99833.75
2022-11-24T13:23:56.321Z,99837.88
2022-11-24T13:27:14.492Z,99832.28
2022-11-24T13:30:36.332Z,99835.81
2022-11-24T13:33:41.940Z,99837.44
2022-11-24T13:36:54.949Z,99833.53
2022-11-24T13:40:05.248Z,99835.63
2022-11-24T13:43:12.181Z,99844.22
2022-11-24T13:46:35.056Z,99850.97
2022-11-24T13:49:39.275Z,99847.72
2022-11-24T13:52:47.950Z,99851.34
2022-11-24T13:55:55.539Z,99846.59
2022-11-24T13:59:00.552Z,99854.78
2022-11-24T14:02:18.306Z,99857.63
2022-11-24T14:05:24.105Z,99863.47
2022-11-24T14:08:29.657Z,99857.00
2022-11-24T14:11:33.009Z,99872.72
2022-11-24T14:14:36.681Z,99850.59
2022-11-24T14:17:40.438Z,99870.84
2022-11-24T14:20:43.615Z,99871.37
2022-11-24T14:23:51.532Z,99861.63
2022-11-24T14:26:55.900Z,99874.56
2022-11-24T14:30:00.979Z,99879.50
2022-11-24T14:33:04.945Z,99883.72
2022-11-24T14:36:14.670Z,99875.12
2022-11-24T14:39:19.645Z,99882.16
2022-11-24T14:42:25.940Z,99883.31
2022-11-24T14:45:29.144Z,99891.81
2022-11-24T14:48:37.922Z,99892.31
2022-11-24T14:51:44.529Z,99889.31
2022-11-24T14:54:50.103Z,99901.53
2022-11-24T14:57:52.553Z,99908.53
2022-11-24T15:01:19.829Z,99917.56
2022-11-24T15:04:54.386Z,99923.66
2022-11-24T15:07:52.734Z,99930.72
2022-11-24T15:10:58.038Z,99932.31
2022-11-24T15:14:01.884Z,99933.16
2022-11-24T15:17:06.472Z,99945.56
2022-11-24T15:20:11.239Z,99948.84
2022-11-24T15:23:21.262Z,99941.56
2022-11-24T15:26:36.694Z,99943.97
2022-11-24T15:29:42.800Z,99947.94
2022-11-24T15:32:57.357Z,99945.75
2022-11-24T15:36:02.472Z,99940.56
2022-11-24T15:39:06.092Z,99948.88
2022-11-24T15:42:13.051Z,99941.13
2022-11-24T15:45:17.490Z,99951.03
2022-11-24T15:48:21.712Z,99951.19
2022-11-24T15:51:26.803Z,99952.00
2022-11-24T15:54:31.183Z,99948.72
2022-11-24T15:57:36.616Z,99959.12
2022-11-24T16:00:40.312Z,99956.34
2022-11-24T16:03:47.948Z,99956.19
2022-11-24T16:06:52.421Z,99952.06
2022-11-24T16:09:56.463Z,99950.53
2022-11-24T16:13:00.674Z,99957.25
2022-11-24T16:16:06.308Z,99962.78
2022-11-24T16:19:11.440Z,99958.34
2022-11-24T16:22:18.673Z,99960.84
2022-11-24T16:25:24.594Z,99965.13
2022-11-24T16:28:28.921Z,99962.09
2022-11-24T16:31:34.443Z,99967.19
2022-11-24T16:34:40.807Z,99965.84
2022-11-24T16:37:45.967Z,99977.22
2022-11-24T16:40:55.415Z,99970.31
2022-11-24T16:44:03.454Z,99981.25
2022-11-24T16:47:10.173Z,99982.78
2022-11-24T16:50:15.619Z,99983.63
2022-11-24T16:53:21.481Z,99991.09
2022-11-24T16:56:27.596Z,99995.53
2022-11-24T16:59:33.031Z,99994.34
2022-11-24T17:02:38.941Z,99989.91
2022-11-24T17:05:46.349Z,99993.22
2022-11-24T17:08:55.714Z,99994.75
2022-11-24T17:12:02.387Z,99996.97
2022-11-24T17:15:31.942Z,100007.78
2022-11-24T17:18:34.087Z,100006.69
2022-11-24T17:21:43.886Z,100024.94
2022-11-24T17:24:51.865Z,100025.22
2022-11-24T17:27:59.602Z,100031.44
2022-11-24T17:31:17.347Z,100026.75
2022-11-24T17:34:26.347Z,100033.94
2022-11-24T17:37:34.505Z,100030.34
2022-11-24T17:40:41.745Z,100040.56
2022-11-24T17:43:54.305Z,100053.59
2022-11-24T17:47:02.192Z,100041.41
2022-11-24T17:50:10.152Z,100048.62
2022-11-24T17:53:16.150Z,100063.13
2022-11-24T17:56:27.301Z,100067.00
2022-11-24T17:59:33.206Z,100058.28
2022-11-24T18:02:39.798Z,100069.75
2022-11-24T18:05:46.672Z,100073.47
2022-11-24T18:08:52.394Z,100073.88
2022-11-24T18:12:02.022Z,100079.97
2022-11-24T18:15:07.885Z,100084.81
2022-11-24T18:18:14.696Z,100084.25
2022-11-24T18:21:21.404Z,100090.22
2022-11-24T18:24:29.750Z,100096.84
2022-11-24T18:27:36.586Z,100093.09
2022-11-24T18:30:43.629Z,100096.56
2022-11-24T18:33:52.702Z,100103.19
2022-11-24T18:37:00.494Z,100110.38
2022-11-24T18:40:07.957Z,100118.37
2022-11-24T18:43:13.877Z,100112.00
2022-11-24T18:46:21.566Z,100116.44
2022-11-24T18:49:28.484Z,100124.03
2022-11-24T18:52:35.590Z,100125.91
2022-11-24T18:55:42.058Z,100131.03
2022-11-24T18:58:49.839Z,100129.78
2022-11-24T19:02:00.945Z,100132.25
2022-11-24T19:05:06.828Z,100133.50
2022-11-24T19:08:14.983Z,100132.66
2022-11-24T19:11:22.039Z,100144.12
2022-11-24T19:14:28.167Z,100136.75
2022-11-24T19:17:36.830Z,100137.16
2022-11-24T19:20:45.196Z,100143.62
2022-11-24T19:23:51.556Z,100150.94
2022-11-24T19:27:00.175Z,100158.09
2022-11-24T19:30:06.733Z,100168.88
2022-11-24T19:33:14.119Z,100174.75
2022-11-24T19:36:20.645Z,100183.72
2022-11-24T19:39:28.878Z,100182.87
2022-11-24T19:42:34.888Z,100176.94
2022-11-24T19:45:45.961Z,100176.75
2022-11-24T19:48:53.953Z,100185.91
2022-11-24T19:52:04.442Z,100189.34
2022-11-24T19:55:12.297Z,100186.00
2022-11-24T19:58:21.177Z,100191.66
2022-11-24T20:01:30.387Z,100206.69
2022-11-24T20:04:39.483Z,100201.91
2022-11-24T20:07:45.439Z,100203.25
2022-11-24T20:10:50.032Z,100209.00
2022-11-24T20:13:57.237Z,100221.25
2022-11-24T20:17:05.865Z,100221.38
2022-11-24T20:20:11.699Z,100225.00
2022-11-24T20:23:18.199Z,100226.63
2022-11-24T20:26:26.841Z,100229.25
2022-11-24T20:29:34.196Z,100235.66
2022-11-24T20:32:38.843Z,100247.22
2022-11-24T20:35:42.892Z,100248.72
2022-11-24T20:38:46.309Z,100249.09
2022-11-24T20:41:49.837Z,100264.44
2022-11-24T20:44:55.363Z,100260.59
2022-11-24T20:48:01.912Z,100265.47
2022-11-24T20:51:10.137Z,100266.56
2022-11-24T20:54:16.595Z,100268.59
2022-11-24T20:57:19.859Z,100273.84
2022-11-24T21:00:28.378Z,100273.84
2022-11-24T21:03:33.061Z,100266.94
2022-11-24T21:06:38.804Z,100268.72
2022-11-24T21:09:45.533Z,100275.75
2022-11-24T21:12:51.034Z,100274.00
2022-11-24T21:15:56.312Z,100284.84
2022-11-24T21:19:03.709Z,100281.69
2022-11-24T21:22:08.724Z,100285.03
2022-11-24T21:25:13.516Z,100288.00
2022-11-24T21:28:19.251Z,100285.13
2022-11-24T21:31:27.846Z,100284.66
2022-11-24T21:34:34.288Z,100288.75
2022-11-24T21:37:40.724Z,100293.88
2022-11-24T21:40:50.292Z,100296.50
2022-11-24T21:43:58.424Z,100299.41
2022-11-24T21:47:04.708Z,100294.53
2022-11-24T21:50:11.828Z,100299.19
2022-11-24T21:53:17.963Z,100296.19
2022-11-24T21:56:24.855Z,100289.38
2022-11-24T21:59:30.872Z,100292.25
2022-11-24T22:02:37.924Z,100291.53
2022-11-24T22:05:55.142Z,100290.84
2022-11-24T22:09:17.994Z,100287.97
2022-11-24T22:12:27.807Z,100291.44
2022-11-24T22:15:33.330Z,100302.75
2022-11-24T22:18:42.605Z,100309.69
2022-11-24T22:21:49.054Z,100312.78
2022-11-24T22:24:55.567Z,100319.13
2022-11-24T22:28:04.156Z,100322.63
2022-11-24T22:31:16.718Z,100315.25
2022-11-24T22:34:27.272Z,100325.25
2022-11-24T22:37:33.339Z,100339.34
2022-11-24T22:40:40.799Z,100333.28
2022-11-24T22:43:47.888Z,100342.56
2022-11-24T22:46:56.854Z,100345.19
2022-11-24T22:50:02.517Z,100348.66
2022-11-24T22:53:06.376Z,100343.75
2022-11-24T22:56:14.865Z,100346.28
2022-11-24T22:59:23.350Z,100344.97
2022-11-24T23:02:29.205Z,100348.91
2022-11-24T23:05:36.510Z,100349.00
2022-11-24T23:08:42.903Z,100347.34
2022-11-24T23:11:48.795Z,100352.47
2022-11-24T23:14:54.908Z,100357.81
2022-11-24T23:18:05.917Z,100354.72
2022-11-24T23:21:13.420Z,100356.97
2022-11-24T23:24:22.834Z,100363.06
2022-11-24T23:27:29.778Z,100367.00
2022-11-24T23:30:36.543Z,100366.53
2022-11-24T23:33:42.591Z,100371.19
2022-11-24T23:36:47.101Z,100370.81
2022-11-24T23:39:55.219Z,100380.56
2022-11-24T23:43:02.808Z,100381.78
2022-11-24T23:46:12.718Z,100381.53
2022-11-24T23:49:20.606Z,100376.06
2022-11-24T23:52:28.195Z,100378.69
2022-11-24T23:55:37.302Z,100374.16
2022-11-24T23:58:45.948Z,100381.62
